Estación Meteorológica Peña el Pijo (Robertgarden) [ 09/29/20 21:20:50 CEST ]

Fecha Hora Presion(HPa) Temp (°C) Humedad % Rocio (°C) Viento ( m/s) Direccion Lluvia 1Hora(mm) Lluvia 24H(mm) LLuvia Total(mm)
2020-Jul-31 01:10:07 1012.200 20.3 65 13.5 - N     89.61
2020-Jul-31 02:09:54 1012.500 19.4 67 13.1 - N     89.61
2020-Jul-31 03:09:32 1012.000 18.7 69 12.9 - N     89.61
2020-Jul-31 04:09:37 1011.500 18.4 70 12.9 - N     89.61
2020-Jul-31 05:09:52 1011.400 17.8 71 12.5 - N     89.61
2020-Jul-31 06:09:47 1011.700 17.1 72 12.0 - N     89.61
2020-Jul-31 07:09:30 1011.800 16.9 72 11.8 - N     89.61
2020-Jul-31 08:09:08 1011.700 17.3 71 12.0 - N     89.61
2020-Jul-31 09:09:20 1011.900 21.6 63 14.2 - N     89.61
2020-Jul-31 10:09:09 1011.600 26.2 56 16.7 - N     89.61
2020-Jul-31 11:09:17 1011.500 29.3 50 17.9 - N     89.61
2020-Jul-31 12:09:29 1011.500 32.9 30 13.1 - N     89.61
2020-Jul-31 13:09:32 1011.500 35.5 23 11.0 - N     89.61
2020-Jul-31 14:09:45 1011.400 35.0 20 8.7 - N     89.61
2020-Jul-31 15:09:22 1011.600 34.9 21 9.2 - N     89.61
2020-Jul-31 16:09:17 1011.700 34.8 20 8.5 - N     89.61
2020-Jul-31 17:09:19 1011.500 34.7 21 9.1 - N     89.61
2020-Jul-31 18:09:47 1011.500 34.3 23 10.0 - N     89.61
2020-Jul-31 19:09:35 1011.600 33.2 22 8.5 - N     89.61
2020-Jul-31 20:09:46 1012.200 31.7 25 9.0 - N     89.61
2020-Jul-31 21:09:33 1012.400 28.5 33 10.6 - N     89.61
2020-Jul-31 22:09:53 1012.900 25.9 38 10.4 - N     89.61
2020-Jul-31 23:09:24 1013.400 24.6 41 10.5 - N     89.61

Temperatura Máxima:35°    Temperatura Mínima:16°
Presión Máxima:1013.400 Hpa    Presión Mínima:1011.400 Hpa


Volver